Time;durP1;ratioP1;P1;durP2;ratioP2;P2;SDS_P1;SDS_P2;PMS_P1;PMS_P2;Temp;Humidity;BMP_temperature;BMP_pressure;BME280_temperature;BME280_humidity;BME280_pressure;Samples;Min_cycle;Max_cycle;Signal;HPM_P1;HPM_P2
2021/04/03 00:00:56;;;;;;;31.23;19.87;;;;;;;4.18;71.04;96339.72;1710733;82;21277;-81
2021/04/03 00:03:26;;;;;;;31.80;20.60;;;;;;;4.15;70.92;96336.28;1712341;82;21119;-80
2021/04/03 00:05:54;;;;;;;40.70;23.98;;;;;;;4.06;70.89;96331.17;1703116;82;21136;-81
2021/04/03 00:08:26;;;;;;;36.17;22.87;;;;;;;4.01;70.96;96334.26;1702222;82;21289;-81
2021/04/03 00:11:03;;;;;;;34.33;21.15;;;;;;;3.95;71.02;96331.30;1714873;82;21490;-81
2021/04/03 00:13:34;;;;;;;40.55;24.27;;;;;;;3.86;71.22;96329.09;1722511;82;21487;-81
2021/04/03 00:16:03;;;;;;;32.53;19.62;;;;;;;3.80;71.26;96327.45;1706502;84;21172;-81
2021/04/03 00:18:30;;;;;;;37.05;22.65;;;;;;;3.85;70.93;96328.81;1733429;83;21198;-81
2021/04/03 00:20:58;;;;;;;37.42;21.93;;;;;;;3.90;71.18;96320.21;1732150;83;21149;-81
2021/04/03 00:23:25;;;;;;;32.93;21.00;;;;;;;3.89;71.18;96318.63;1715358;84;21500;-81
2021/04/03 00:25:52;;;;;;;34.50;22.17;;;;;;;3.89;71.18;96318.63;1734646;82;21460;-81
2021/04/03 00:28:20;;;;;;;34.83;22.95;;;;;;;3.83;71.37;96318.30;1706568;84;21184;-81
2021/04/03 00:30:48;;;;;;;37.48;23.65;;;;;;;3.71;71.48;96316.30;1725312;83;21136;-81
2021/04/03 00:33:15;;;;;;;37.93;23.12;;;;;;;3.61;71.72;96310.38;1722470;83;21655;-80
2021/04/03 00:35:44;;;;;;;35.68;22.07;;;;;;;3.52;71.97;96310.02;1706601;84;21511;-81
2021/04/03 00:38:13;;;;;;;35.58;22.15;;;;;;;3.40;72.34;96302.77;1734142;82;21155;-81
2021/04/03 00:40:47;;;;;;;37.35;23.87;;;;;;;3.23;73.22;96300.12;1725596;83;21269;-81
2021/04/03 00:43:22;;;;;;;36.03;22.30;;;;;;;3.07;73.72;96293.59;1720334;83;21141;-81
2021/04/03 00:45:50;;;;;;;37.55;23.70;;;;;;;2.99;74.04;96305.27;1702407;84;21154;-81
2021/04/03 00:48:19;;;;;;;34.78;20.68;;;;;;;2.95;73.79;96308.84;1696439;84;21128;-81
2021/04/03 00:50:50;;;;;;;45.55;25.97;;;;;;;2.99;73.83;96306.58;1696955;84;21172;-81
2021/04/03 00:53:21;;;;;;;38.30;23.30;;;;;;;3.00;73.75;96302.13;1722183;83;21499;-81
2021/04/03 00:55:49;;;;;;;38.48;23.75;;;;;;;3.01;73.74;96304.51;1740709;81;21130;-81
2021/04/03 00:58:17;;;;;;;42.15;25.02;;;;;;;3.02;73.74;96300.86;1740835;81;21156;-81
2021/04/03 01:00:46;;;;;;;37.90;24.32;;;;;;;3.00;73.71;96297.69;1752622;81;21513;-80
2021/04/03 01:03:15;;;;;;;34.65;23.45;;;;;;;3.01;73.61;96294.55;1759793;81;21099;-80
2021/04/03 01:05:43;;;;;;;40.75;24.77;;;;;;;3.02;73.71;96289.59;1747373;81;21127;-80
2021/04/03 01:08:11;;;;;;;43.48;25.27;;;;;;;3.02;73.63;96294.83;1747249;81;21130;-80
2021/04/03 01:10:47;;;;;;;36.73;24.27;;;;;;;2.99;73.66;96286.94;1742322;81;21241;-80
2021/04/03 01:13:32;;;;;;;37.70;23.98;;;;;;;2.94;73.71;96291.55;1761760;81;21111;-80
2021/04/03 01:16:19;;;;;;;41.30;26.07;;;;;;;2.95;73.87;96287.11;1753298;81;21666;-80
2021/04/03 01:19:25;;;;;;;42.05;24.55;;;;;;;2.95;74.00;96288.42;1746934;81;21088;-80
2021/04/03 01:22:31;;;;;;;36.33;21.23;;;;;;;2.95;73.85;96283.19;1743180;81;21244;-81
2021/04/03 01:28:33;;;;;;;41.37;24.63;;;;;;;2.98;73.68;96269.13;1765090;79;23056;-80
2021/04/03 01:31:01;;;;;;;41.00;24.70;;;;;;;2.93;73.67;96269.02;1738525;80;21497;-82
2021/04/03 01:33:32;;;;;;;37.58;22.85;;;;;;;2.90;73.52;96258.23;1720418;81;21484;-81
2021/04/03 01:36:05;;;;;;;39.33;24.07;;;;;;;2.82;73.68;96265.98;1693394;83;21134;-81
2021/04/03 01:38:51;;;;;;;40.60;24.75;;;;;;;2.73;73.82;96268.70;1728938;81;21120;-81
2021/04/03 01:41:23;;;;;;;35.90;22.58;;;;;;;2.66;73.98;96261.50;1719843;81;21118;-81
2021/04/03 01:43:53;;;;;;;39.90;24.40;;;;;;;2.63;74.01;96261.98;1694066;83;21100;-81
2021/04/03 01:46:27;;;;;;;41.20;24.45;;;;;;;2.61;74.04;96266.15;1736957;81;21164;-81
2021/04/03 01:48:56;;;;;;;34.48;23.32;;;;;;;2.57;74.23;96262.94;1732649;81;21105;-81
2021/04/03 01:51:25;;;;;;;43.02;24.70;;;;;;;2.51;74.27;96256.02;1684499;83;21126;-82
2021/04/03 01:53:53;;;;;;;38.10;24.77;;;;;;;2.42;74.60;96250.39;1730486;82;21119;-81
2021/04/03 01:56:23;;;;;;;35.68;21.50;;;;;;;2.34;74.76;96251.55;1730720;82;21128;-81
2021/04/03 01:58:52;;;;;;;39.97;23.93;;;;;;;2.27;75.22;96256.66;1725297;82;21158;-81
2021/04/03 02:01:19;;;;;;;38.53;24.37;;;;;;;2.20;75.14;96255.47;1731908;82;21150;-81
2021/04/03 02:03:48;;;;;;;36.25;23.55;;;;;;;2.12;75.58;96241.48;1728187;82;21114;-81
2021/04/03 02:06:16;;;;;;;38.17;23.47;;;;;;;2.05;75.57;96244.73;1738942;82;21510;-81
2021/04/03 02:08:48;;;;;;;39.45;23.25;;;;;;;2.02;75.58;96240.77;1699998;83;21501;-81
2021/04/03 02:11:16;;;;;;;40.30;24.15;;;;;;;2.01;75.69;96247.03;1721582;83;21130;-81
2021/04/03 02:13:44;;;;;;;36.33;23.95;;;;;;;1.99;76.05;96243.06;1729240;83;21135;-81
2021/04/03 02:16:13;;;;;;;44.08;25.08;;;;;;;2.00;75.88;96231.58;1707522;83;21495;-81
2021/04/03 02:18:41;;;;;;;40.03;24.00;;;;;;;2.02;75.96;96236.05;1704103;82;21163;-81
2021/04/03 02:21:09;;;;;;;34.73;22.85;;;;;;;2.02;76.09;96230.31;1730666;82;21558;-81
2021/04/03 02:23:38;;;;;;;35.03;22.45;;;;;;;2.07;76.15;96230.91;1723663;83;21110;-81
2021/04/03 02:26:05;;;;;;;37.33;22.93;;;;;;;2.09;76.02;96224.93;1714160;83;21519;-81
2021/04/03 02:28:33;;;;;;;34.83;21.35;;;;;;;2.04;75.71;96227.46;1722236;83;21143;-81
2021/04/03 02:31:01;;;;;;;39.27;23.42;;;;;;;1.99;75.78;96227.38;1711730;83;21233;-81
2021/04/03 02:33:29;;;;;;;35.38;22.90;;;;;;;2.00;75.93;96227.14;1734665;83;21113;-81
2021/04/03 02:35:56;;;;;;;41.63;25.23;;;;;;;2.06;75.97;96224.89;1734161;81;21168;-81
2021/04/03 02:38:23;;;;;;;33.42;20.88;;;;;;;2.03;75.63;96228.48;1745127;81;21110;-81
2021/04/03 02:40:51;;;;;;;36.50;22.90;;;;;;;1.99;76.15;96220.33;1725201;81;21140;-81
2021/04/03 02:43:42;;;;;;;37.40;22.73;;;;;;;1.99;76.03;96228.17;1712612;81;21499;-81
2021/04/03 02:49:05;;;;;;;37.55;24.75;;;;;;;1.99;76.60;96217.71;1771516;79;22936;-80
2021/04/03 02:51:40;;;;;;;43.08;25.77;;;;;;;1.95;76.60;96215.27;1731971;81;21153;-80
2021/04/03 02:54:10;;;;;;;41.45;23.57;;;;;;;1.98;76.71;96216.64;1748366;80;21504;-81
2021/04/03 02:56:40;;;;;;;37.00;22.15;;;;;;;1.99;76.74;96215.61;1730166;81;21155;-80
2021/04/03 02:59:15;;;;;;;34.00;18.37;;;;;;;2.00;76.70;96222.42;1722843;81;21106;-81
2021/04/03 03:01:46;;;;;;;39.95;24.37;;;;;;;2.05;77.22;96218.08;1722411;81;21116;-80
2021/04/03 03:04:16;;;;;;;38.75;22.37;;;;;;;2.07;77.07;96217.84;1738163;81;21492;-81
2021/04/03 03:06:46;;;;;;;30.40;17.12;;;;;;;2.04;76.85;96211.77;1742012;81;21151;-80
2021/04/03 03:09:19;;;;;;;38.45;24.15;;;;;;;1.96;76.93;96223.38;1733403;81;21523;-80
2021/04/03 03:11:52;;;;;;;37.95;23.27;;;;;;;1.90;76.90;96223.53;1731855;81;21520;-81
2021/04/03 03:14:22;;;;;;;40.67;23.95;;;;;;;1.86;76.83;96222.42;1727555;81;21133;-81
2021/04/03 03:16:52;;;;;;;44.95;26.85;;;;;;;1.79;76.57;96218.10;1740911;81;21126;-81
2021/04/03 03:19:22;;;;;;;27.93;16.80;;;;;;;1.72;76.65;96218.77;1739816;81;21143;-81
2021/04/03 03:21:51;;;;;;;42.83;26.75;;;;;;;1.68;76.68;96218.92;1717626;82;21497;-81
2021/04/03 03:24:19;;;;;;;39.50;25.67;;;;;;;1.65;76.79;96214.67;1727667;81;21132;-81
2021/04/03 03:26:47;;;;;;;44.10;25.62;;;;;;;1.62;76.80;96218.55;1731994;81;21188;-81
2021/04/03 03:29:14;;;;;;;42.67;26.37;;;;;;;1.58;76.75;96217.44;1722203;81;21129;-81
2021/04/03 03:31:43;;;;;;;47.10;27.58;;;;;;;1.55;76.81;96210.55;1724521;81;21151;-81
2021/04/03 03:34:11;;;;;;;43.13;27.20;;;;;;;1.52;76.82;96206.58;1725123;81;21140;-81
2021/04/03 03:36:40;;;;;;;45.48;25.70;;;;;;;1.48;77.08;96201.55;1720596;81;21134;-81
2021/04/03 03:39:08;;;;;;;46.90;27.50;;;;;;;1.44;77.06;96205.14;1744942;81;21486;-81
2021/04/03 03:41:36;;;;;;;44.88;27.48;;;;;;;1.43;77.09;96206.68;1723921;81;21646;-81
2021/04/03 03:44:06;;;;;;;41.33;26.37;;;;;;;1.39;77.11;96210.75;1689366;82;21102;-81
2021/04/03 03:46:35;;;;;;;44.25;26.65;;;;;;;1.38;77.11;96207.86;1685144;84;21123;-81
2021/04/03 03:49:03;;;;;;;40.15;25.75;;;;;;;1.31;77.10;96216.34;1689836;84;21297;-81
2021/04/03 03:51:32;;;;;;;43.75;26.62;;;;;;;1.22;77.04;96218.50;1702553;84;21289;-81
2021/04/03 03:53:59;;;;;;;41.10;25.65;;;;;;;1.11;77.30;96206.23;1730640;82;21142;-81
2021/04/03 03:56:26;;;;;;;38.28;22.85;;;;;;;1.10;77.70;96215.89;1718291;81;21145;-81
2021/04/03 03:58:53;;;;;;;39.65;26.15;;;;;;;1.16;78.57;96205.06;1706629;82;21129;-81
2021/04/03 04:01:21;;;;;;;42.30;25.90;;;;;;;1.25;78.57;96209.41;1722606;82;21143;-81
2021/04/03 04:03:48;;;;;;;42.93;24.57;;;;;;;1.26;78.49;96202.64;1714932;82;21125;-81
2021/04/03 04:06:15;;;;;;;41.50;26.20;;;;;;;1.26;78.36;96201.85;1722854;82;21115;-81
2021/04/03 04:08:43;;;;;;;43.68;26.60;;;;;;;1.21;78.43;96203.06;1707741;82;21125;-81
2021/04/03 04:11:11;;;;;;;48.80;30.48;;;;;;;1.19;78.53;96197.56;1698768;82;21525;-81
2021/04/03 04:13:38;;;;;;;42.70;27.48;;;;;;;1.14;78.20;96187.53;1720827;82;21131;-81
2021/04/03 04:16:06;;;;;;;37.87;26.33;;;;;;;1.13;78.20;96191.95;1722464;82;21162;-81
2021/04/03 04:18:33;;;;;;;37.90;24.40;;;;;;;1.12;78.16;96187.73;1719024;82;21149;-81
2021/04/03 04:21:01;;;;;;;41.13;24.55;;;;;;;1.05;78.39;96183.16;1719578;82;21135;-81
2021/04/03 04:23:28;;;;;;;36.65;23.22;;;;;;;0.98;78.46;96185.08;1713413;82;21531;-81
2021/04/03 04:25:55;;;;;;;44.65;28.12;;;;;;;0.90;78.78;96190.66;1716629;82;21162;-81
2021/04/03 04:28:22;;;;;;;41.42;26.52;;;;;;;0.93;79.00;96188.09;1724113;82;21127;-81
2021/04/03 04:30:49;;;;;;;43.55;27.35;;;;;;;1.01;79.17;96192.47;1723496;82;21216;-81
2021/04/03 04:33:15;;;;;;;46.63;27.05;;;;;;;1.08;79.08;96191.03;1730472;81;21163;-81
2021/04/03 04:35:42;;;;;;;43.92;27.05;;;;;;;1.13;79.13;96195.88;1728375;82;21644;-81
2021/04/03 04:38:09;;;;;;;44.80;27.15;;;;;;;1.21;79.18;96188.70;1724476;82;21128;-81
2021/04/03 04:40:37;;;;;;;42.03;26.37;;;;;;;1.29;79.20;96190.98;1727363;82;21150;-81
2021/04/03 04:43:04;;;;;;;44.33;26.45;;;;;;;1.41;79.17;96191.75;1708792;82;21533;-81
2021/04/03 04:45:31;;;;;;;45.65;26.57;;;;;;;1.45;79.00;96192.88;1710823;82;21184;-81
2021/04/03 04:47:58;;;;;;;39.65;24.92;;;;;;;1.50;78.92;96190.35;1710960;82;21498;-81
2021/04/03 04:50:25;;;;;;;39.85;25.15;;;;;;;1.62;78.91;96191.63;1684381;84;21273;-81
2021/04/03 04:52:52;;;;;;;36.00;22.35;;;;;;;1.66;78.74;96190.14;1664865;85;21687;-81
2021/04/03 04:55:20;;;;;;;41.23;26.48;;;;;;;1.71;78.66;96184.52;1687660;84;21128;-81
2021/04/03 04:57:47;;;;;;;44.53;25.52;;;;;;;1.74;78.76;96185.86;1672197;84;21346;-81
2021/04/03 05:00:16;;;;;;;41.23;26.12;;;;;;;1.93;79.15;96196.92;1728805;82;21128;-81
2021/04/03 05:02:43;;;;;;;44.23;25.65;;;;;;;2.03;79.22;96198.42;1731612;82;21555;-81
2021/04/03 05:05:11;;;;;;;47.35;29.98;;;;;;;2.11;79.43;96214.23;1721571;81;21260;-81
2021/04/03 05:07:38;;;;;;;45.78;27.07;;;;;;;2.18;79.49;96214.39;1721410;83;21152;-81
2021/04/03 05:10:07;;;;;;;46.25;29.15;;;;;;;2.34;79.64;96227.22;1713027;82;21129;-81
2021/04/03 05:12:34;;;;;;;45.35;27.02;;;;;;;2.38;79.35;96232.25;1722296;83;21095;-81
2021/04/03 05:15:01;;;;;;;40.83;26.23;;;;;;;2.37;79.01;96239.30;1730582;82;21511;-81
2021/04/03 05:17:28;;;;;;;39.95;24.45;;;;;;;2.34;78.71;96238.98;1725244;83;21129;-81
2021/04/03 05:19:56;;;;;;;39.03;26.23;;;;;;;2.29;78.69;96241.52;1715201;83;21269;-81
2021/04/03 05:22:23;;;;;;;42.20;26.30;;;;;;;2.23;78.63;96248.46;1714090;82;21088;-81
2021/04/03 05:24:50;;;;;;;41.85;27.77;;;;;;;2.24;78.98;96247.44;1727145;83;21451;-81
2021/04/03 05:27:17;;;;;;;41.73;26.93;;;;;;;2.30;79.10;96246.52;1717128;83;21151;-81
2021/04/03 05:29:44;;;;;;;40.63;24.82;;;;;;;2.36;79.11;96254.72;1726408;83;21123;-81
2021/04/03 05:32:12;;;;;;;43.80;26.45;;;;;;;2.41;79.26;96251.42;1713220;83;21132;-81
2021/04/03 05:34:39;;;;;;;44.55;26.93;;;;;;;2.51;79.45;96256.02;1728053;82;21153;-81
2021/04/03 05:37:06;;;;;;;44.13;27.45;;;;;;;2.58;79.42;96257.47;1717261;82;21269;-81
2021/04/03 05:39:33;;;;;;;40.43;24.47;;;;;;;2.62;79.21;96259.88;1723546;82;21134;-81
2021/04/03 05:42:00;;;;;;;36.53;21.02;;;;;;;2.64;78.96;96266.19;1718265;83;21119;-81
2021/04/03 05:44:28;;;;;;;39.20;25.43;;;;;;;2.58;78.88;96268.45;1736381;82;21282;-80
2021/04/03 05:46:55;;;;;;;37.98;24.47;;;;;;;2.55;78.91;96266.31;1712814;83;21528;-80
2021/04/03 05:49:24;;;;;;;44.58;27.93;;;;;;;2.55;78.99;96269.72;1726297;81;21142;-81
2021/04/03 05:51:51;;;;;;;36.73;21.07;;;;;;;2.58;79.11;96276.30;1735634;81;21132;-81
2021/04/03 05:54:20;;;;;;;40.95;23.75;;;;;;;2.60;78.96;96275.03;1722862;83;21103;-81
2021/04/03 05:56:47;;;;;;;47.43;24.57;;;;;;;2.58;79.27;96278.92;1663915;84;21144;-80
2021/04/03 05:59:14;;;;;;;44.45;27.15;;;;;;;2.59;79.26;96281.81;1659501;84;21246;-80
2021/04/03 06:01:42;;;;;;;41.77;25.08;;;;;;;2.62;79.02;96281.33;1681466;84;21183;-80
2021/04/03 06:04:09;;;;;;;40.33;24.77;;;;;;;2.62;78.90;96286.56;1698817;83;21545;-82
2021/04/03 06:06:36;;;;;;;40.78;26.90;;;;;;;2.61;78.85;96283.67;1711672;83;21154;-80
2021/04/03 06:09:07;;;;;;;40.70;25.68;;;;;;;2.64;78.91;96285.30;1694514;83;21143;-82
2021/04/03 06:11:45;;;;;;;;;;;;;;;2.71;79.14;96286.98;1689266;83;21138;-80
2021/04/03 06:14:14;;;;;;;40.95;24.20;;;;;;;2.80;79.08;96291.58;1688228;83;20415;-80
2021/04/03 06:16:51;;;;;;;39.83;24.27;;;;;;;2.92;79.31;96286.28;1708852;83;21491;-81
2021/04/03 06:19:26;;;;;;;44.77;28.67;;;;;;;3.01;79.29;96282.77;1703634;83;21131;-81
2021/04/03 06:22:00;;;;;;;43.48;29.55;;;;;;;3.11;79.56;96283.73;1704356;83;21187;-81
2021/04/03 06:24:35;;;;;;;47.67;28.12;;;;;;;3.23;79.54;96288.86;1674819;83;21133;-80
2021/04/03 06:27:12;;;;;;;37.83;21.93;;;;;;;3.31;79.37;96280.61;1683568;84;21150;-81
2021/04/03 06:29:47;;;;;;;45.90;29.55;;;;;;;3.41;79.32;96283.38;1686045;84;21150;-81
2021/04/03 06:32:31;;;;;;;45.45;29.70;;;;;;;3.47;79.40;96282.41;1670876;84;21145;-81
2021/04/03 06:34:57;;;;;;;46.95;26.12;;;;;;;3.53;79.04;96280.16;1676337;83;21174;-81
2021/04/03 06:37:37;;;;;;;44.38;26.82;;;;;;;3.53;78.57;96295.88;1682722;84;21171;-81
2021/04/03 06:40:13;;;;;;;36.17;21.12;;;;;;;3.56;78.62;96287.52;1688436;84;21165;-81
2021/04/03 06:42:52;;;;;;;49.05;30.70;;;;;;;3.64;78.49;96281.58;1673355;84;21283;-82
2021/04/03 06:45:35;;;;;;;43.78;28.30;;;;;;;3.64;78.52;96290.75;1692819;83;21114;-82
2021/04/03 06:48:09;;;;;;;44.30;27.60;;;;;;;3.69;78.58;96290.84;1696462;83;21117;-82
2021/04/03 06:50:44;;;;;;;31.05;20.85;;;;;;;3.72;78.41;96292.45;1687457;83;21151;-81
2021/04/03 06:53:20;;;;;;;37.80;23.35;;;;;;;3.78;78.33;96284.92;1684210;83;21179;-81
2021/04/03 06:55:50;;;;;;;42.05;26.40;;;;;;;3.78;77.95;96297.23;1677900;83;21272;-82
2021/04/03 06:58:17;;;;;;;46.77;28.83;;;;;;;3.77;77.99;96300.89;1672195;83;21176;-82
2021/04/03 07:00:47;;;;;;;45.55;26.30;;;;;;;3.80;78.18;96305.16;1671918;83;21302;-82
2021/04/03 07:03:19;;;;;;;46.23;26.50;;;;;;;3.82;78.24;96307.53;1656743;83;21137;-82
2021/04/03 07:05:47;;;;;;;44.65;28.15;;;;;;;3.81;78.47;96304.13;1704143;83;21165;-81
2021/04/03 07:08:17;;;;;;;31.52;17.17;;;;;;;3.78;78.79;96305.89;1714438;83;21162;-82
2021/04/03 07:10:45;;;;;;;39.85;23.18;;;;;;;3.70;78.23;96310.78;1707497;83;21144;-82
2021/04/03 07:13:14;;;;;;;52.13;32.48;;;;;;;3.69;78.69;96306.05;1724600;83;21127;-82
2021/04/03 07:15:44;;;;;;;42.38;27.67;;;;;;;3.74;78.73;96310.05;1718216;82;21090;-82
2021/04/03 07:18:11;;;;;;;58.48;36.70;;;;;;;3.79;78.55;96321.11;1703772;83;22160;-82
2021/04/03 07:20:39;;;;;;;49.35;34.80;;;;;;;3.94;78.13;96325.27;1709960;83;21128;-81
2021/04/03 07:23:10;;;;;;;48.95;29.55;;;;;;;4.10;77.71;96319.69;1717019;83;21197;-82
2021/04/03 07:25:44;;;;;;;55.30;35.03;;;;;;;3.97;77.48;96324.77;1720127;83;21176;-82
2021/04/03 07:28:14;;;;;;;56.63;36.50;;;;;;;3.87;77.68;96329.36;1726432;82;21161;-82
2021/04/03 07:30:45;;;;;;;59.18;38.38;;;;;;;3.86;77.87;96326.98;1705620;82;21131;-82
2021/04/03 07:33:22;;;;;;;43.95;26.10;;;;;;;3.81;77.85;96329.55;1708462;83;21121;-82
2021/04/03 07:35:54;;;;;;;45.17;26.95;;;;;;;3.76;78.01;96324.22;1715356;83;21517;-82
2021/04/03 07:38:28;;;;;;;41.98;26.27;;;;;;;3.66;78.20;96334.06;1716606;83;21104;-82
2021/04/03 07:40:59;;;;;;;59.60;36.38;;;;;;;3.61;78.47;96331.88;1706515;83;21492;-82
2021/04/03 07:43:34;;;;;;;57.43;34.50;;;;;;;3.54;78.89;96339.39;1707777;83;21141;-82
2021/04/03 07:46:08;;;;;;;60.52;36.33;;;;;;;3.51;79.03;96339.06;1721227;83;21134;-82
2021/04/03 07:48:45;;;;;;;191.47;127.00;;;;;;;3.46;79.28;96354.20;1723834;83;21467;-82
2021/04/03 07:51:27;;;;;;;232.60;134.37;;;;;;;3.47;79.13;96351.06;1701915;82;21165;-82
2021/04/03 07:54:00;;;;;;;57.15;38.08;;;;;;;3.48;79.05;96356.06;1699574;83;21140;-82
2021/04/03 07:56:50;;;;;;;49.93;31.12;;;;;;;3.48;79.14;96359.20;1703922;83;21153;-82
2021/04/03 07:59:39;;;;;;;48.80;30.48;;;;;;;3.44;79.47;96356.27;1708649;83;21107;-81
2021/04/03 08:02:13;;;;;;;164.00;85.90;;;;;;;3.42;79.65;96368.81;1716338;82;21578;-82
2021/04/03 08:04:41;;;;;;;50.28;32.48;;;;;;;3.51;79.80;96369.98;1702677;82;21136;-82
2021/04/03 08:07:08;;;;;;;126.45;58.05;;;;;;;3.63;79.23;96369.11;1718083;83;21574;-82
2021/04/03 08:09:37;;;;;;;49.80;34.03;;;;;;;3.70;79.06;96371.07;1719289;83;21153;-82
2021/04/03 08:12:06;;;;;;;45.10;30.77;;;;;;;3.83;78.65;96370.73;1716568;83;21153;-83
2021/04/03 08:14:36;;;;;;;53.98;34.67;;;;;;;3.85;78.56;96365.52;1735662;83;21138;-83
2021/04/03 08:17:05;;;;;;;43.90;30.23;;;;;;;3.86;78.42;96375.49;1712126;82;21173;-82
2021/04/03 08:19:36;;;;;;;54.90;33.73;;;;;;;3.91;78.44;96372.94;1710955;83;21179;-82
2021/04/03 08:22:09;;;;;;;52.20;33.95;;;;;;;3.94;78.27;96375.09;1687579;83;21154;-82
2021/04/03 08:24:36;;;;;;;64.07;38.90;;;;;;;4.01;78.36;96368.35;1725654;83;21087;-82
2021/04/03 08:27:06;;;;;;;48.83;29.35;;;;;;;4.10;78.48;96374.26;1730358;82;21455;-82
2021/04/03 08:29:37;;;;;;;43.58;27.73;;;;;;;4.25;78.69;96370.24;1694460;83;21137;-82
2021/04/03 08:32:06;;;;;;;43.50;29.35;;;;;;;4.18;77.96;96366.47;1716937;83;21511;-82
2021/04/03 08:34:33;;;;;;;38.40;26.42;;;;;;;4.01;77.89;96377.02;1707035;83;21128;-83
2021/04/03 08:37:02;;;;;;;55.05;37.10;;;;;;;3.88;78.45;96374.22;1704094;83;21495;-82
2021/04/03 08:39:29;;;;;;;45.85;31.65;;;;;;;3.74;79.28;96374.79;1697569;82;21130;-82
2021/04/03 08:41:58;;;;;;;39.55;26.33;;;;;;;3.63;79.15;96376.98;1715583;83;21182;-82
2021/04/03 08:44:31;;;;;;;48.73;32.50;;;;;;;3.67;79.22;96384.14;1727342;83;21138;-82
2021/04/03 08:47:03;;;;;;;34.92;25.68;;;;;;;3.60;79.42;96382.70;1722728;83;21139;-82
2021/04/03 08:49:40;;;;;;;31.95;21.90;;;;;;;3.46;79.26;96387.47;1729937;82;21119;-82
2021/04/03 08:52:10;;;;;;;41.58;28.50;;;;;;;3.47;79.54;96388.54;1683726;84;21149;-82
2021/04/03 08:54:44;;;;;;;28.65;20.32;;;;;;;3.45;79.50;96395.84;1716078;83;21143;-83
2021/04/03 08:57:29;;;;;;;21.73;12.58;;;;;;;3.44;79.91;96389.02;1695150;83;21106;-82
2021/04/03 09:00:01;;;;;;;32.38;20.43;;;;;;;3.30;80.22;96389.57;1727191;83;21519;-82
2021/04/03 09:02:29;;;;;;;27.05;18.30;;;;;;;3.15;80.29;96403.20;1733082;83;21166;-82
2021/04/03 09:04:56;;;;;;;19.17;11.78;;;;;;;3.08;80.14;96402.55;1700443;82;21167;-83
2021/04/03 09:07:36;;;;;;;22.10;14.68;;;;;;;2.93;80.65;96403.07;1712827;83;21158;-82
2021/04/03 09:10:10;;;;;;;21.20;13.55;;;;;;;2.70;80.90;96411.83;1705241;83;21498;-82
2021/04/03 09:12:38;;;;;;;22.62;14.65;;;;;;;2.59;81.24;96419.19;1727981;83;21158;-83
2021/04/03 09:15:08;;;;;;;14.43;10.50;;;;;;;2.55;81.58;96422.80;1729286;83;21147;-83
2021/04/03 09:17:38;;;;;;;21.65;13.15;;;;;;;2.55;81.63;96424.10;1687733;83;21152;-82
2021/04/03 09:20:10;;;;;;;18.95;12.85;;;;;;;2.47;81.99;96428.89;1716185;83;21123;-83
2021/04/03 09:22:41;;;;;;;21.12;14.65;;;;;;;2.42;82.18;96428.28;1710574;83;21572;-83
2021/04/03 09:25:12;;;;;;;17.87;11.12;;;;;;;2.42;82.44;96432.72;1731533;82;21134;-82
2021/04/03 09:27:41;;;;;;;19.52;12.95;;;;;;;2.43;82.83;96435.62;1729578;82;21156;-82
2021/04/03 09:30:13;;;;;;;21.65;14.45;;;;;;;2.41;82.62;96437.16;1697993;82;21531;-82
2021/04/03 09:32:47;;;;;;;19.25;12.45;;;;;;;2.43;82.46;96442.16;1702343;82;21133;-83
2021/04/03 09:35:22;;;;;;;21.87;14.80;;;;;;;2.52;82.44;96443.38;1724194;83;21440;-82
2021/04/03 09:38:04;;;;;;;19.50;14.65;;;;;;;2.63;82.48;96438.12;1720666;82;21133;-83
2021/04/03 09:40:43;;;;;;;20.48;12.98;;;;;;;2.78;82.52;96440.75;1709641;83;21139;-82
2021/04/03 09:43:13;;;;;;;20.08;13.83;;;;;;;2.84;82.52;96436.70;1703752;83;21090;-82
2021/04/03 09:45:41;;;;;;;23.13;17.00;;;;;;;2.88;82.49;96439.64;1725516;83;21483;-82
2021/04/03 09:48:10;;;;;;;23.42;15.72;;;;;;;3.01;82.29;96442.50;1729203;82;21154;-82
2021/04/03 09:50:40;;;;;;;20.40;14.73;;;;;;;3.31;82.48;96448.80;1689397;83;21523;-82
2021/04/03 09:53:13;;;;;;;27.65;19.37;;;;;;;3.45;82.23;96446.16;1691124;83;21149;-82
2021/04/03 09:55:41;;;;;;;22.22;16.87;;;;;;;3.47;82.41;96447.50;1679427;84;21473;-81
2021/04/03 09:58:08;;;;;;;24.85;17.82;;;;;;;3.48;82.16;96449.09;1691871;84;21132;-81
2021/04/03 10:00:35;;;;;;;30.15;18.35;;;;;;;3.52;81.96;96450.23;1673165;84;21640;-81
2021/04/03 10:03:04;;;;;;;25.60;18.45;;;;;;;3.61;81.72;96450.61;1688333;84;21151;-81
2021/04/03 10:05:31;;;;;;;23.22;16.10;;;;;;;3.62;81.17;96444.85;1679277;84;21274;-81
2021/04/03 10:07:58;;;;;;;25.45;17.32;;;;;;;3.57;81.19;96447.68;1675898;84;21136;-81
2021/04/03 10:10:26;;;;;;;24.80;17.35;;;;;;;3.51;80.96;96449.92;1683606;84;21109;-81
2021/04/03 10:12:54;;;;;;;33.30;20.45;;;;;;;3.53;81.05;96451.81;1674337;84;21528;-81
2021/04/03 10:15:22;;;;;;;24.65;16.25;;;;;;;3.61;81.17;96454.55;1675044;84;21266;-81
2021/04/03 10:17:50;;;;;;;24.95;17.90;;;;;;;3.64;80.99;96450.66;1687057;83;21532;-81
2021/04/03 10:20:18;;;;;;;24.70;14.87;;;;;;;3.60;80.64;96451.64;1686250;83;21169;-81
2021/04/03 10:22:46;;;;;;;26.52;19.52;;;;;;;3.52;81.16;96450.23;1685777;83;21190;-81
2021/04/03 10:25:14;;;;;;;19.80;13.65;;;;;;;3.38;80.94;96450.25;1710531;83;21532;-81
2021/04/03 10:27:43;;;;;;;21.80;15.78;;;;;;;3.46;81.15;96441.98;1681581;82;21138;-81
2021/04/03 10:30:12;;;;;;;24.25;16.67;;;;;;;3.46;81.34;96452.47;1696575;84;21473;-81
2021/04/03 10:32:39;;;;;;;24.57;17.40;;;;;;;3.66;81.87;96449.89;1680133;84;21226;-81
2021/04/03 10:35:08;;;;;;;23.73;16.60;;;;;;;3.83;81.31;96450.71;1681311;84;21136;-81
2021/04/03 10:37:36;;;;;;;24.47;15.88;;;;;;;4.12;81.13;96451.41;1678732;84;21148;-81
2021/04/03 10:40:06;;;;;;;18.87;14.50;;;;;;;4.46;80.98;96452.91;1680289;84;21600;-81
2021/04/03 10:42:33;;;;;;;20.80;15.30;;;;;;;4.77;80.12;96458.02;1684445;84;21165;-81
2021/04/03 10:45:00;;;;;;;18.77;13.98;;;;;;;4.82;79.62;96449.42;1691722;84;21465;-81
2021/04/03 10:47:28;;;;;;;19.75;15.25;;;;;;;4.91;78.92;96450.56;1674594;84;21169;-81
2021/04/03 10:49:58;;;;;;;21.75;13.85;;;;;;;5.00;78.96;96452.24;1709512;82;21175;-81
2021/04/03 10:52:25;;;;;;;21.95;11.63;;;;;;;5.10;78.50;96456.30;1709014;82;21129;-81
2021/04/03 10:54:53;;;;;;;15.85;11.85;;;;;;;5.12;77.98;96458.16;1705731;83;21502;-81
2021/04/03 10:57:23;;;;;;;21.52;14.13;;;;;;;4.89;77.24;96450.54;1704603;83;21154;-82
2021/04/03 10:59:51;;;;;;;20.97;14.33;;;;;;;4.58;77.13;96458.05;1718561;82;21531;-81
2021/04/03 11:02:18;;;;;;;18.85;11.95;;;;;;;4.40;77.47;96459.66;1718273;83;21172;-81
2021/04/03 11:04:46;;;;;;;19.07;12.93;;;;;;;4.02;77.77;96473.02;1701559;83;21132;-82
2021/04/03 11:07:13;;;;;;;22.60;15.40;;;;;;;3.70;78.53;96475.41;1702823;83;21117;-81
2021/04/03 11:09:40;;;;;;;20.97;13.05;;;;;;;3.32;79.54;96475.27;1702963;83;21100;-82
2021/04/03 11:12:11;;;;;;;14.30;8.80;;;;;;;3.13;80.53;96475.98;1709671;82;21137;-81
2021/04/03 11:14:38;;;;;;;32.90;20.05;;;;;;;3.04;80.95;96481.31;1722527;82;21525;-81
2021/04/03 11:17:06;;;;;;;13.55;8.78;;;;;;;2.93;81.18;96477.17;1713221;82;21532;-81
2021/04/03 11:19:33;;;;;;;31.73;18.35;;;;;;;2.91;81.75;96477.13;1702003;83;21097;-81
2021/04/03 11:22:00;;;;;;;33.40;16.87;;;;;;;2.82;82.19;96483.27;1710006;83;21119;-81
2021/04/03 11:24:27;;;;;;;25.10;14.63;;;;;;;2.84;82.53;96482.52;1710056;83;21182;-81
2021/04/03 11:26:55;;;;;;;22.00;13.45;;;;;;;2.86;83.17;96482.28;1697755;83;21130;-81
2021/04/03 11:29:22;;;;;;;20.12;11.85;;;;;;;2.95;83.34;96477.73;1674597;83;21156;-81
2021/04/03 11:31:49;;;;;;;13.28;9.18;;;;;;;3.19;83.36;96475.04;1680510;83;21333;-81
2021/04/03 11:34:17;;;;;;;18.85;13.03;;;;;;;3.44;84.14;96472.08;1684056;83;21795;-81
2021/04/03 11:36:44;;;;;;;14.95;9.75;;;;;;;3.67;84.02;96478.52;1692189;83;21124;-81
2021/04/03 11:39:11;;;;;;;18.77;11.75;;;;;;;3.90;83.07;96474.93;1683660;83;21141;-81
2021/04/03 11:41:38;;;;;;;21.35;13.32;;;;;;;4.12;82.90;96470.56;1680525;83;21519;-81
2021/04/03 11:44:06;;;;;;;15.88;9.98;;;;;;;4.23;82.03;96468.88;1687894;83;21136;-81